AirNav  
 
 1460 users online  

WA54 1001 Fourth Avenue Plaza Heliport
Seattle, Washington, USA

GOING TO SEATTLE?


FAA INFORMATION EFFECTIVE 04 JANUARY 2018

Location

FAA Identifier: WA54
Lat/Long: 47-36-24.3530N / 122-20-01.4550W
47-36.405883N / 122-20.024250W
47.6067647 / -122.3337375
(estimated)
Elevation: 716 ft. / 218 m (estimated)
Variation: 20E (1985)
Time zone: UTC -8 (UTC -7 during Daylight Saving Time)
Zip code: 98154

Heliport Operations

Heliport use: Private use. Permission required prior to landing
Activation date: 08/1969
Control tower: no
ARTCC: SEATTLE CENTER
FSS: SEATTLE FLIGHT SERVICE STATION
Attendance: CONTINUOUS
Wind indicator: yes
Segmented circle: yes
Landing fee: yes

Heliport Communications

WX ASOS at BFI (5 nm S): PHONE 206-763-6904
WX ASOS at RNT (8 nm SE): PHONE 425-255-6080
WX ASOS at SEA (9 nm S): PHONE 206-214-2592
WX ASOS at PAE (18 nm N): 128.65 (425-355-6192)
WX AWOS-3PT at PWT (19 nm W): 121.2 (360-674-2811)

Nearby radio navigation aids

VOR radial/distance  VOR name  Freq  Var
SEAr336/10.3SEATTLE VORTAC116.8019E
PAEr167/18.9PAINE VOR/DME110.6020E
TCMr357/28.1MCCHORD VORTAC109.6015E

 
NDB name  Hdg/Dist  Freq  Var  ID
NOLLA109/2.736215EBF -... ..-.
PARKK331/4.628115EHPK .... .--. -.-
RENTON307/8.235317ERNT .-. -. -
GRAYE006/29.521616EGRF --. .-. ..-.
LACOMAS358/37.132816ELAC .-.. .- -.-.
MASON COUNTY036/37.434819EMNC -- -. -.-.

Heliport Services

Airframe service: NONE
Powerplant service: NONE
Bottled oxygen: NONE
Bulk oxygen: NONE

Runway Information

Helipad H1

Dimensions: 35 x 35 ft. / 11 x 11 m
Surface: concrete, in fair condition
ROOFTOP.
Runway edge lights: ENTR BNDRY HELI OUTLINED IN FLORESCENT LGTS WHICH ARE RAISED 8 INCHES ABOVE PAD SFC.
Latitude: 47-36.405883N
Longitude: 122-20.024250W
Elevation: 716.0 ft.
Traffic pattern: rightleft
Markings: none, in fair condition
Obstructions: 25 ft. ant, 60 ft. from runway, 2:1 slope to clear
LGTD RADIO ANTENNAS WEST EDGE OF BLDG.

Heliport Ownership and Management from official FAA records

Ownership: Privately-owned
Owner: 1001 FOURTH AVE ASSOCIATES
1001 4TH AVE
SEATTLE, WA 98154
Phone 206-583-5058
Manager: CAROLYN NEER
1001 4TH AVE
SEATTLE, WA 98154
Phone 206-623-6936

Additional Remarks

CTC PROPERTY MGMT ON 206-623-6936 FOR PRIOR PERMISSION.

Instrument Procedures

There are no published instrument procedures at WA54.

Some nearby airports with instrument procedures:

KBFI - Boeing Field/King County International Airport (5 nm S)
KRNT - Renton Municipal Airport (8 nm SE)
KSEA - Seattle-Tacoma International Airport (9 nm S)
S50 - Auburn Municipal Airport (17 nm S)
KPAE - Snohomish County Airport (Paine Field) (18 nm N)
KPWT - Bremerton National Airport (19 nm W)
 
Loc | Ops | Rwys | IFR | FBO | Links
Com | Nav | Svcs | Stats | Notes


 
Area around WA54 (1001 Fourth Avenue Plaza Heliport)
 
Road maps at: MapQuest Bing Google
 
Aerial photo
No photo
 
Sectional chart

 
Airport distance calculator
Flying to 1001 Fourth Avenue Plaza Heliport? Find the distance to fly.

From to WA54

Sunrise and sunset
Times for 19-Jan-2018
 Local
(UTC-8)
 Zulu
(UTC)
Morning civil twilight07:1715:17
Sunrise07:5115:51
Sunset16:4900:49
Evening civil twilight17:2401:24

Current date and time
Zulu (UTC)  19-Jan-2018 16:04:50
Local (UTC-8)  19-Jan-2018 08:04:50
 
METAR
KBFI 
3nm S 
191553Z AUTO 15007KT 10SM BKN050 OVC060 04/03 A2987 RMK AO2 SLP113 T00440028
KRNT 
8nm SE 
191553Z 14003KT 10SM -RA BKN048 OVC070 04/03 A2987 RMK AO2 SLP119 P0000 T00440028
KSEA 
9nm S 
191553Z 18008KT 10SM BKN050 BKN070 OVC200 05/02 A2986 RMK AO2 RAB14E27B44E50 SLP119 P0000 T00500022
KPWT 
18nm W 
191556Z AUTO 19009KT 10SM -RA OVC013 04/03 A2985 RMK AO2 RAE23B56 SLP125 P0000 T00440033
KPAE 
19nm N 
191553Z 12011KT 10SM BKN038 OVC050 05/02 A2984 RMK AO2 SLP109 T00500022
TAF
KBFI 
3nm S 
191120Z 1912/2012 16008KT P6SM VCSH BKN050 BKN070 FM191300 16008KT P6SM -SHRA BKN050 BKN070 FM192300 17012KT P6SM -SHRA BKN030 OVC045 FM200300 17012KT P6SM -SHRA BKN016 OVC025
KSEA 
9nm S 
191402Z 1914/2018 18012KT P6SM VCSH SCT045 BKN070 TEMPO 1914/1918 -SHRA BKN045 FM192300 19012G20KT P6SM -SHRA BKN025 OVC040 FM200300 19012G20KT P6SM -SHRA BKN012 OVC025
KPWT 
18nm W 
191120Z 1912/2012 19008KT P6SM VCSH SCT011 OVC040 FM191400 19009KT P6SM -SHRA BKN011 OVC045 FM192200 19015G25KT 5SM -SHRA BKN015 OVC025 FM200200 19015G25KT 5SM -SHRA BKN007 OVC015
KPAE 
19nm N 
191120Z 1912/2012 16012G20KT P6SM VCSH SCT015 BKN035 BKN080 FM191400 16012G20KT P6SM -SHRA SCT015 BKN025 OVC050 FM192200 17015G25KT P6SM -SHRA BKN015 OVC025 FM200200 17015G25KT 5SM -SHRA BKN009 OVC015
NOTAMs
Click for the latest NOTAMs
NOTAMs are issued by the DoD/FAA and will open in a separate window not controlled by AirNav.

 

 
 

Would you like to see your business listed on this page?

 If your business provides an interesting product or service to pilots, flight crews, aircraft, or users of the 1001 Fourth Avenue Plaza Heliport, you should consider listing it here.  To start the listing process, click on the button below
 
Add a business
 

Other Pages about 1001 Fourth Avenue Plaza Heliport

Update a link
 
Copyright © AirNav, LLC. All rights reserved. Privacy Policy  Contact